createdAt,value
2023-04-10T00:00:14.148Z,63.6398
2023-04-10T00:01:22.310Z,63.9178
2023-04-10T00:02:30.457Z,63.5372
2023-04-10T00:03:38.531Z,63.4148
2023-04-10T00:04:46.572Z,63.2616
2023-04-10T00:05:54.831Z,63.3659
2023-04-10T00:07:02.652Z,63.2638
2023-04-10T00:08:10.719Z,63.4927
2023-04-10T00:09:18.775Z,63.9540
2023-04-10T00:10:26.803Z,64.4657
2023-04-10T00:11:35.066Z,64.5630
2023-04-10T00:12:42.956Z,64.3178
2023-04-10T00:13:50.891Z,64.0497
2023-04-10T00:14:59.054Z,63.9464
2023-04-10T00:16:07.176Z,63.8192
2023-04-10T00:17:15.222Z,63.9935
2023-04-10T00:18:23.227Z,64.1157
2023-04-10T00:19:31.188Z,64.5233
2023-04-10T00:20:39.226Z,64.3598
2023-04-10T00:21:47.411Z,63.8600
2023-04-10T00:22:55.385Z,64.3458
2023-04-10T00:24:03.557Z,64.8196
2023-04-10T00:25:11.489Z,64.6413
2023-04-10T00:26:19.639Z,64.7398
2023-04-10T00:27:27.796Z,64.9229
2023-04-10T00:28:35.717Z,65.3327
2023-04-10T00:29:44.162Z,65.1835
2023-04-10T00:30:51.811Z,65.5195
2023-04-10T00:32:00.282Z,65.1611
2023-04-10T00:33:08.146Z,65.1878
2023-04-10T00:34:16.207Z,65.3994
2023-04-10T00:35:24.228Z,65.7038
2023-04-10T00:36:32.246Z,65.3563
2023-04-10T00:37:40.318Z,65.2496
2023-04-10T00:38:48.296Z,65.2264
2023-04-10T00:39:56.380Z,65.1668
2023-04-10T00:41:04.514Z,65.3166
2023-04-10T00:42:12.579Z,65.4092
2023-04-10T00:43:20.731Z,65.5804
2023-04-10T00:44:28.928Z,65.4469
2023-04-10T00:45:36.787Z,65.6269
2023-04-10T00:46:44.873Z,65.8979
2023-04-10T00:47:52.933Z,65.8392
2023-04-10T00:49:00.940Z,66.0518
2023-04-10T00:50:09.040Z,65.8592
2023-04-10T00:51:17.239Z,65.7703
2023-04-10T00:52:25.103Z,65.9450
2023-04-10T00:53:33.186Z,65.8767
2023-04-10T00:54:41.244Z,66.0178
2023-04-10T00:55:49.311Z,66.4980
2023-04-10T00:56:57.384Z,66.7488
2023-04-10T00:58:05.407Z,66.2663
2023-04-10T00:59:13.488Z,66.0807
2023-04-10T01:00:21.420Z,66.1993
2023-04-10T01:01:29.769Z,65.8730
2023-04-10T01:02:37.814Z,66.3620
2023-04-10T01:03:45.725Z,66.4699
2023-04-10T01:04:53.828Z,66.7922
2023-04-10T01:06:01.875Z,67.0415
2023-04-10T01:07:09.928Z,66.4968
2023-04-10T01:08:17.999Z,66.5958
2023-04-10T01:09:26.070Z,66.7531
2023-04-10T01:10:34.266Z,66.6394
2023-04-10T01:11:42.168Z,66.7261
2023-04-10T01:12:50.463Z,66.8148
2023-04-10T01:13:58.420Z,66.4155
2023-04-10T01:15:06.368Z,66.5290
2023-04-10T01:16:14.451Z,66.8785
2023-04-10T01:17:22.411Z,66.7086
2023-04-10T01:18:30.558Z,66.4883
2023-04-10T01:19:38.741Z,66.7702
2023-04-10T01:20:46.702Z,66.5363
2023-04-10T01:21:54.740Z,66.9996
2023-04-10T01:23:02.721Z,67.0485
2023-04-10T01:24:10.941Z,67.0000
2023-04-10T01:25:19.005Z,67.0092
2023-04-10T01:26:27.034Z,67.0378
2023-04-10T01:27:35.119Z,66.9651
2023-04-10T01:28:43.273Z,67.1656
2023-04-10T01:29:51.214Z,67.1899
2023-04-10T01:30:59.375Z,67.3252
2023-04-10T01:32:07.357Z,67.7402
2023-04-10T01:33:15.448Z,67.4527
2023-04-10T01:34:23.522Z,67.0259
2023-04-10T01:35:31.612Z,67.2933
2023-04-10T01:36:39.509Z,67.6431
2023-04-10T01:37:47.686Z,67.4224
2023-04-10T01:38:55.756Z,67.3666
2023-04-10T01:40:03.675Z,67.4875
2023-04-10T01:41:11.912Z,67.4390
2023-04-10T01:42:19.988Z,67.3381
2023-04-10T01:43:27.889Z,67.3226
2023-04-10T01:44:36.046Z,67.5367
2023-04-10T01:45:44.185Z,67.4598
2023-04-10T01:46:52.352Z,67.7125
2023-04-10T01:48:00.472Z,67.9365
2023-04-10T01:49:08.353Z,67.4941
2023-04-10T01:50:16.423Z,67.6892
2023-04-10T01:51:24.564Z,67.4995
2023-04-10T01:52:32.540Z,67.6692
2023-04-10T01:53:40.657Z,67.6477
2023-04-10T01:54:48.724Z,67.5749
2023-04-10T01:55:56.737Z,67.6418
2023-04-10T01:57:04.938Z,67.6851
2023-04-10T01:58:12.866Z,68.1894
2023-04-10T01:59:20.989Z,68.0983
2023-04-10T02:00:29.039Z,68.0712
2023-04-10T02:01:37.114Z,67.7340
2023-04-10T02:02:45.467Z,67.9073
2023-04-10T02:03:53.344Z,68.4471
2023-04-10T02:05:01.588Z,68.4415
2023-04-10T02:06:09.354Z,68.1581
2023-04-10T02:07:17.412Z,68.0747
2023-04-10T02:08:25.489Z,68.3794
2023-04-10T02:09:33.554Z,68.4267
2023-04-10T02:10:41.752Z,68.5856
2023-04-10T02:11:49.744Z,68.7801
2023-04-10T02:12:57.845Z,68.7332
2023-04-10T02:14:05.888Z,68.3801
2023-04-10T02:15:13.804Z,68.8223
2023-04-10T02:16:22.052Z,68.7365
2023-04-10T02:17:30.161Z,68.4656
2023-04-10T02:18:38.120Z,68.7368
2023-04-10T02:19:46.316Z,68.4749
2023-04-10T02:20:54.285Z,68.4648
2023-04-10T02:22:02.469Z,68.5585
2023-04-10T02:23:10.592Z,68.9829
2023-04-10T02:24:18.490Z,68.6089
2023-04-10T02:25:26.423Z,68.7738
2023-04-10T02:26:34.606Z,68.7357
2023-04-10T02:27:42.730Z,68.5635
2023-04-10T02:28:50.743Z,68.7151
2023-04-10T02:29:58.812Z,68.2998
2023-04-10T02:31:06.840Z,68.5368
2023-04-10T02:32:14.977Z,68.6579
2023-04-10T02:33:23.214Z,68.3489
2023-04-10T02:34:31.079Z,68.4232
2023-04-10T02:35:39.165Z,68.6103
2023-04-10T02:36:47.227Z,68.9394
2023-04-10T02:37:55.309Z,69.1062
2023-04-10T02:39:03.386Z,69.0575
2023-04-10T02:40:11.514Z,68.8243
2023-04-10T02:41:19.610Z,68.8785
2023-04-10T02:42:27.610Z,68.8859
2023-04-10T02:43:35.522Z,69.3747
2023-04-10T02:44:43.739Z,69.2573
2023-04-10T02:45:51.631Z,69.0672
2023-04-10T02:46:59.953Z,69.0042
2023-04-10T02:48:07.754Z,69.0477
2023-04-10T02:49:16.204Z,68.8277
2023-04-10T02:50:24.146Z,69.3044
2023-04-10T02:51:32.221Z,69.0844
2023-04-10T02:52:40.141Z,69.0267
2023-04-10T02:53:48.095Z,69.0673
2023-04-10T02:54:56.347Z,68.9187
2023-04-10T02:56:04.405Z,69.1661
2023-04-10T02:57:12.456Z,68.6250
2023-04-10T02:58:20.546Z,69.0369
2023-04-10T02:59:29.508Z,68.9507
2023-04-10T03:00:36.635Z,69.1156
2023-04-10T03:01:44.941Z,68.9832
2023-04-10T03:02:52.713Z,69.0297
2023-04-10T03:04:00.917Z,68.8630
2023-04-10T03:05:08.903Z,69.0467
2023-04-10T03:06:17.038Z,69.1121
2023-04-10T03:07:25.071Z,69.1316
2023-04-10T03:08:32.981Z,68.8376
2023-04-10T03:09:41.091Z,69.2579
2023-04-10T03:10:49.252Z,69.1853
2023-04-10T03:11:57.448Z,69.2048
2023-04-10T03:13:05.428Z,69.3867
2023-04-10T03:14:13.697Z,69.2191
2023-04-10T03:15:21.398Z,68.8767
2023-04-10T03:16:29.560Z,69.1925
2023-04-10T03:17:37.849Z,69.0242
2023-04-10T03:18:45.740Z,68.9545
2023-04-10T03:19:53.765Z,68.6334
2023-04-10T03:21:01.860Z,68.7926
2023-04-10T03:22:09.933Z,68.8589
2023-04-10T03:23:18.023Z,69.0189
2023-04-10T03:24:26.169Z,69.2284
2023-04-10T03:25:33.991Z,69.7956
2023-04-10T03:26:42.204Z,70.0398
2023-04-10T03:27:50.114Z,69.3122
2023-04-10T03:28:58.464Z,68.8014
2023-04-10T03:30:06.431Z,68.9509
2023-04-10T03:31:14.352Z,68.8843
2023-04-10T03:32:22.522Z,69.6586
2023-04-10T03:33:30.484Z,69.6587
2023-04-10T03:34:38.640Z,69.4804
2023-04-10T03:35:46.820Z,69.8496
2023-04-10T03:36:54.663Z,69.9826
2023-04-10T03:38:03.017Z,69.8424
2023-04-10T03:39:10.814Z,69.3673
2023-04-10T03:40:18.982Z,69.6804
2023-04-10T03:41:26.937Z,69.5827
2023-04-10T03:42:34.966Z,69.3280
2023-04-10T03:43:43.398Z,69.0183
2023-04-10T03:44:51.273Z,69.5786
2023-04-10T03:45:59.308Z,69.5410
2023-04-10T03:47:07.614Z,69.9286
2023-04-10T03:48:15.308Z,70.7918
2023-04-10T03:49:23.514Z,70.8437
2023-04-10T03:50:31.583Z,70.6969
2023-04-10T03:51:39.653Z,70.4857
2023-04-10T03:52:47.788Z,70.6927
2023-04-10T03:53:56.117Z,70.9860
2023-04-10T03:55:03.851Z,70.6673
2023-04-10T03:56:12.228Z,70.6749
2023-04-10T03:57:19.964Z,71.1285
2023-04-10T03:58:28.008Z,71.9412
2023-04-10T03:59:38.923Z,72.2502
2023-04-10T04:00:49.053Z,72.3064
2023-04-10T04:01:57.074Z,72.5578
2023-04-10T04:03:05.369Z,72.6599
2023-04-10T04:04:13.382Z,72.7690
2023-04-10T04:05:21.286Z,72.7930
2023-04-10T04:06:29.276Z,72.6368
2023-04-10T04:07:37.378Z,72.0189
2023-04-10T04:08:45.451Z,72.0642
2023-04-10T04:09:56.090Z,72.5335
2023-04-10T04:11:06.419Z,72.0559
2023-04-10T04:12:14.463Z,71.7989
2023-04-10T04:13:22.606Z,72.0473
2023-04-10T04:14:30.575Z,72.1829
2023-04-10T04:15:38.706Z,72.2919
2023-04-10T04:16:46.854Z,72.1425
2023-04-10T04:17:54.810Z,71.9511
2023-04-10T04:19:02.873Z,71.2936
2023-04-10T04:20:10.931Z,71.0357
2023-04-10T04:21:19.126Z,71.0645
2023-04-10T04:22:27.077Z,70.7399
2023-04-10T04:23:35.270Z,71.1559
2023-04-10T04:24:43.220Z,71.3151
2023-04-10T04:25:51.169Z,71.0093
2023-04-10T04:26:59.369Z,71.1189
2023-04-10T04:28:07.314Z,70.9277
2023-04-10T04:29:15.596Z,70.9256
2023-04-10T04:30:23.506Z,71.4644
2023-04-10T04:31:31.567Z,71.6543
2023-04-10T04:32:39.784Z,71.4131
2023-04-10T04:33:47.610Z,71.8374
2023-04-10T04:34:55.797Z,72.3572
2023-04-10T04:36:04.009Z,72.5641
2023-04-10T04:37:11.924Z,73.5734
2023-04-10T04:38:20.044Z,74.4592
2023-04-10T04:39:28.039Z,73.8645
2023-04-10T04:40:36.217Z,73.6450
2023-04-10T04:41:44.165Z,73.8452
2023-04-10T04:42:52.247Z,73.8380
2023-04-10T04:44:00.349Z,73.8480
2023-04-10T04:45:08.430Z,74.0658
2023-04-10T04:46:16.495Z,73.9083
2023-04-10T04:47:24.549Z,73.7941
2023-04-10T04:48:32.714Z,73.4771
2023-04-10T04:49:40.706Z,73.5969
2023-04-10T04:50:48.716Z,73.7535
2023-04-10T04:51:56.838Z,73.8469
2023-04-10T04:53:07.842Z,73.6716
2023-04-10T04:54:17.751Z,73.7494
2023-04-10T04:55:25.898Z,73.7180
2023-04-10T04:56:33.969Z,73.3650
2023-04-10T04:57:41.995Z,72.9708
2023-04-10T04:58:50.045Z,72.7784
2023-04-10T04:59:58.137Z,72.6029
2023-04-10T05:01:06.347Z,72.4142
2023-04-10T05:02:14.324Z,72.3851
2023-04-10T05:03:22.545Z,72.8824
2023-04-10T05:04:30.720Z,72.4667
2023-04-10T05:05:38.432Z,72.2145
2023-04-10T05:06:46.523Z,72.3608
2023-04-10T05:07:54.546Z,72.2935
2023-04-10T05:09:02.647Z,72.2802
2023-04-10T05:10:10.667Z,72.0366
2023-04-10T05:11:18.764Z,72.3274
2023-04-10T05:12:26.955Z,72.2468
2023-04-10T05:13:34.862Z,71.8872
2023-04-10T05:14:42.889Z,71.5732
2023-04-10T05:15:51.088Z,71.6037
2023-04-10T05:17:01.045Z,71.8866
2023-04-10T05:18:12.095Z,71.8636
2023-04-10T05:19:20.003Z,71.5839
2023-04-10T05:20:28.176Z,71.9844
2023-04-10T05:21:36.297Z,72.5250
2023-04-10T05:22:44.271Z,71.6676
2023-04-10T05:23:52.324Z,71.3664
2023-04-10T05:25:00.388Z,71.6084
2023-04-10T05:26:08.360Z,72.0688
2023-04-10T05:27:16.493Z,71.7677
2023-04-10T05:28:24.656Z,71.9461
2023-04-10T05:29:32.676Z,71.9919
2023-04-10T05:30:40.783Z,71.6531
2023-04-10T05:31:48.824Z,71.3830
2023-04-10T05:32:56.841Z,71.6098
2023-04-10T05:34:04.864Z,71.9222
2023-04-10T05:35:13.040Z,71.6940
2023-04-10T05:36:21.003Z,71.4987
2023-04-10T05:37:29.061Z,71.0171
2023-04-10T05:38:37.114Z,71.3215
2023-04-10T05:39:45.308Z,71.1188
2023-04-10T05:40:53.303Z,70.9994
2023-04-10T05:42:01.328Z,70.5837
2023-04-10T05:43:09.468Z,71.2735
2023-04-10T05:44:17.427Z,71.7764
2023-04-10T05:45:25.485Z,71.0686
2023-04-10T05:46:33.755Z,71.1311
2023-04-10T05:47:41.630Z,70.9025
2023-04-10T05:48:49.666Z,70.3263
2023-04-10T05:49:57.824Z,69.9647
2023-04-10T05:51:05.810Z,69.6830
2023-04-10T05:52:13.885Z,69.6011
2023-04-10T05:53:21.924Z,69.7297
2023-04-10T05:54:29.995Z,69.9464
2023-04-10T05:55:38.055Z,69.7142
2023-04-10T05:56:46.110Z,69.8021
2023-04-10T05:57:54.358Z,70.1235
2023-04-10T05:59:02.255Z,69.7478
2023-04-10T06:00:10.367Z,69.6525
2023-04-10T06:01:18.434Z,70.6201
2023-04-10T06:02:26.652Z,70.6075
2023-04-10T06:03:34.661Z,69.9737
2023-04-10T06:04:42.715Z,70.4691
2023-04-10T06:05:50.637Z,69.7298
2023-04-10T06:06:58.705Z,69.1777
2023-04-10T06:08:06.700Z,69.6049
2023-04-10T06:09:14.933Z,70.5576
2023-04-10T06:10:22.937Z,70.3216
2023-04-10T06:11:30.945Z,70.2140
2023-04-10T06:12:39.099Z,70.2436
2023-04-10T06:13:47.066Z,69.7193
2023-04-10T06:14:55.297Z,69.7193
2023-04-10T06:16:03.215Z,69.8029
2023-04-10T06:17:11.415Z,69.3370
2023-04-10T06:18:19.341Z,69.6369
2023-04-10T06:19:27.469Z,70.3634
2023-04-10T06:20:35.562Z,70.4880
2023-04-10T06:21:43.859Z,69.6715
2023-04-10T06:22:51.683Z,69.4691
2023-04-10T06:23:59.755Z,69.5803
2023-04-10T06:25:07.871Z,69.8554
2023-04-10T06:26:15.880Z,69.5045
2023-04-10T06:27:23.937Z,69.9245
2023-04-10T06:28:32.013Z,70.0707
2023-04-10T06:29:40.069Z,70.4509
2023-04-10T06:30:48.143Z,70.1188
2023-04-10T06:31:56.295Z,70.0569
2023-04-10T06:33:04.426Z,70.2082
2023-04-10T06:34:12.325Z,69.9245
2023-04-10T06:35:20.402Z,70.2773
2023-04-10T06:36:28.503Z,70.2425
2023-04-10T06:37:36.615Z,69.8082
2023-04-10T06:38:44.699Z,70.0998
2023-04-10T06:39:52.658Z,70.3786
2023-04-10T06:41:00.720Z,70.0462
2023-04-10T06:42:08.819Z,69.8422
2023-04-10T06:43:16.898Z,69.9456
2023-04-10T06:44:25.017Z,69.4454
2023-04-10T06:45:32.978Z,69.8187
2023-04-10T06:46:41.093Z,70.4774
2023-04-10T06:47:49.192Z,70.4433
2023-04-10T06:48:57.173Z,70.7380
2023-04-10T06:50:05.248Z,69.9349
2023-04-10T06:51:13.280Z,69.8641
2023-04-10T06:52:21.348Z,69.7417
2023-04-10T06:53:29.427Z,70.4529
2023-04-10T06:54:37.628Z,70.5126
2023-04-10T06:55:45.636Z,69.1883
2023-04-10T06:56:53.630Z,68.7780
2023-04-10T06:58:01.869Z,69.2619
2023-04-10T06:59:09.787Z,68.2651
2023-04-10T07:00:17.920Z,69.2525
2023-04-10T07:01:26.720Z,69.0282
2023-04-10T07:02:34.140Z,68.4758
2023-04-10T07:03:42.151Z,68.0369
2023-04-10T07:04:50.089Z,68.9403
2023-04-10T07:05:58.129Z,68.8785
2023-04-10T07:07:06.304Z,69.4125
2023-04-10T07:08:14.305Z,69.2886
2023-04-10T07:09:22.346Z,69.5441
2023-04-10T07:10:30.395Z,69.3633
2023-04-10T07:11:38.580Z,69.5996
2023-04-10T07:12:46.551Z,69.5460
2023-04-10T07:13:54.589Z,68.0217
2023-04-10T07:15:02.766Z,67.7393
2023-04-10T07:16:10.735Z,67.8643
2023-04-10T07:17:18.867Z,67.9979
2023-04-10T07:18:26.767Z,69.0039
2023-04-10T07:19:34.930Z,69.0693
2023-04-10T07:20:42.953Z,68.8227
2023-04-10T07:21:51.062Z,67.9548
2023-04-10T07:22:59.272Z,68.5771
2023-04-10T07:24:07.168Z,68.5107
2023-04-10T07:25:15.270Z,68.6047
2023-04-10T07:26:23.394Z,68.5283
2023-04-10T07:27:31.289Z,69.0565
2023-04-10T07:28:39.470Z,68.8368
2023-04-10T07:29:47.539Z,68.3006
2023-04-10T07:30:55.669Z,68.0119
2023-04-10T07:32:03.775Z,67.8717
2023-04-10T07:33:12.075Z,68.2670
2023-04-10T07:34:19.781Z,67.5558
2023-04-10T07:35:27.813Z,67.8691
2023-04-10T07:36:35.871Z,67.1765
2023-04-10T07:37:44.030Z,67.5631
2023-04-10T07:38:52.165Z,67.4960
2023-04-10T07:40:00.089Z,67.7393
2023-04-10T07:41:08.184Z,67.6608
2023-04-10T07:42:16.222Z,67.8920
2023-04-10T07:43:24.150Z,67.4004
2023-04-10T07:44:32.437Z,66.6765
2023-04-10T07:45:40.428Z,67.0275
2023-04-10T07:46:48.448Z,67.2326
2023-04-10T07:47:56.525Z,67.3545
2023-04-10T07:49:07.297Z,67.2266
2023-04-10T07:50:17.430Z,67.0409
2023-04-10T07:51:25.642Z,67.3885
2023-04-10T07:52:33.556Z,67.1712
2023-04-10T07:53:41.813Z,67.6171
2023-04-10T07:54:49.762Z,67.2921
2023-04-10T07:55:57.852Z,67.3028
2023-04-10T07:57:06.021Z,67.3022
2023-04-10T07:58:13.943Z,67.3385
2023-04-10T07:59:22.133Z,67.1450
2023-04-10T08:00:30.046Z,67.7542
2023-04-10T08:01:38.141Z,67.4417
2023-04-10T08:02:46.358Z,66.6650
2023-04-10T08:03:54.381Z,66.9428
2023-04-10T08:05:02.488Z,66.4002
2023-04-10T08:06:10.480Z,65.9054
2023-04-10T08:07:18.447Z,64.9583
2023-04-10T08:08:26.627Z,64.1081
2023-04-10T08:09:34.685Z,63.8530
2023-04-10T08:10:42.560Z,64.0689
2023-04-10T08:11:50.745Z,64.1987
2023-04-10T08:12:58.754Z,64.0096
2023-04-10T08:14:06.868Z,64.0867
2023-04-10T08:15:14.910Z,63.3192
2023-04-10T08:16:22.977Z,63.2748
2023-04-10T08:17:31.006Z,64.2309
2023-04-10T08:18:39.061Z,63.6216
2023-04-10T08:19:47.293Z,63.9728
2023-04-10T08:20:55.248Z,64.2026
2023-04-10T08:22:03.274Z,63.8723
2023-04-10T08:24:24.139Z,64.1530
2023-04-10T08:25:32.382Z,64.1039
2023-04-10T08:26:40.346Z,62.9781
2023-04-10T08:27:48.528Z,62.6461
2023-04-10T08:28:56.914Z,62.6088
2023-04-10T08:30:04.574Z,63.6152
2023-04-10T08:31:12.603Z,62.8445
2023-04-10T08:32:20.687Z,63.0573
2023-04-10T08:33:28.760Z,63.0774
2023-04-10T08:34:36.872Z,63.5409
2023-04-10T08:35:44.880Z,62.5764
2023-04-10T08:36:52.973Z,62.1338
2023-04-10T08:38:12.371Z,62.3162
2023-04-10T08:39:13.941Z,62.1550
2023-04-10T08:40:21.988Z,62.4123
2023-04-10T08:41:30.079Z,62.2978
2023-04-10T08:42:38.167Z,62.5191
2023-04-10T08:43:46.507Z,61.9833
2023-04-10T08:44:54.287Z,62.2955
2023-04-10T08:46:02.414Z,62.2683
2023-04-10T08:47:10.582Z,61.8234
2023-04-10T08:48:18.402Z,61.5369
2023-04-10T08:49:26.510Z,61.8011
2023-04-10T08:50:34.559Z,61.6098
2023-04-10T08:51:42.635Z,60.7122
2023-04-10T08:52:50.686Z,60.4791
2023-04-10T08:53:58.771Z,60.4368
2023-04-10T08:55:06.945Z,60.2836
2023-04-10T08:56:14.866Z,59.8520
2023-04-10T08:57:22.929Z,60.0400
2023-04-10T08:58:31.060Z,60.1353
2023-04-10T08:59:39.142Z,60.2145
2023-04-10T09:00:47.149Z,58.2066
2023-04-10T09:01:55.265Z,58.2901
2023-04-10T09:03:03.374Z,59.0775
2023-04-10T09:04:11.541Z,59.8305
2023-04-10T09:05:19.419Z,59.0037
2023-04-10T09:06:27.609Z,58.7655
2023-04-10T09:07:35.515Z,58.6533
2023-04-10T09:08:43.581Z,59.4181
2023-04-10T09:09:51.740Z,60.2871
2023-04-10T09:10:59.781Z,58.8226
2023-04-10T09:12:07.753Z,59.0960
2023-04-10T09:13:16.012Z,58.7410
2023-04-10T09:14:23.876Z,59.0953
2023-04-10T09:15:32.024Z,57.3541
2023-04-10T09:16:40.054Z,56.8368
2023-04-10T09:17:48.125Z,57.5813
2023-04-10T09:18:56.116Z,57.4847
2023-04-10T09:20:04.196Z,57.2320
2023-04-10T09:21:12.321Z,56.9984
2023-04-10T09:22:20.282Z,57.9216
2023-04-10T09:23:28.352Z,58.2052
2023-04-10T09:24:36.559Z,57.6059
2023-04-10T09:25:44.486Z,58.3403
2023-04-10T09:26:52.557Z,57.4657
2023-04-10T09:28:00.745Z,57.9493
2023-04-10T09:29:08.684Z,57.9075
2023-04-10T09:30:16.728Z,56.6808
2023-04-10T09:31:24.999Z,57.3831
2023-04-10T09:32:32.911Z,56.1772
2023-04-10T09:33:40.985Z,57.0985
2023-04-10T09:34:48.984Z,56.8572
2023-04-10T09:35:57.154Z,56.7604
2023-04-10T09:37:05.116Z,57.0239
2023-04-10T09:38:13.173Z,56.0573
2023-04-10T09:39:21.462Z,56.7575
2023-04-10T09:40:29.273Z,56.7571
2023-04-10T09:41:37.349Z,56.2319
2023-04-10T09:42:45.433Z,57.3247
2023-04-10T09:43:53.725Z,55.8864
2023-04-10T09:45:01.569Z,55.3674
2023-04-10T09:46:09.591Z,55.0224
2023-04-10T09:47:17.679Z,53.5738
2023-04-10T09:48:25.723Z,54.9258
2023-04-10T09:49:33.953Z,55.4518
2023-04-10T09:50:41.986Z,54.5998
2023-04-10T09:51:49.897Z,54.8577
2023-04-10T09:52:58.026Z,54.1280
2023-04-10T09:54:06.166Z,53.1908
2023-04-10T09:55:14.093Z,54.0772
2023-04-10T09:56:22.234Z,52.0543
2023-04-10T09:57:30.254Z,52.9877
2023-04-10T09:58:38.403Z,54.0705
2023-04-10T09:59:46.285Z,54.1107
2023-04-10T10:00:54.424Z,52.8690
2023-04-10T10:02:02.721Z,52.0297
2023-04-10T10:03:10.673Z,53.0225
2023-04-10T10:04:18.640Z,52.9629
2023-04-10T10:05:26.793Z,52.3490
2023-04-10T10:06:34.788Z,53.2497
2023-04-10T10:07:42.816Z,52.3236
2023-04-10T10:08:51.031Z,53.9191
2023-04-10T10:09:58.923Z,52.8484
2023-04-10T10:11:07.044Z,51.2547
2023-04-10T10:12:14.969Z,51.5410
2023-04-10T10:13:23.181Z,53.8887
2023-04-10T10:14:31.217Z,52.3927
2023-04-10T10:15:39.245Z,52.5019
2023-04-10T10:16:47.444Z,52.0162
2023-04-10T10:17:55.383Z,53.5507
2023-04-10T10:19:03.471Z,53.3731
2023-04-10T10:20:11.545Z,50.8854
2023-04-10T10:21:19.533Z,50.1855
2023-04-10T10:22:27.578Z,50.8087
2023-04-10T10:23:35.713Z,51.0766
2023-04-10T10:24:43.742Z,51.3729
2023-04-10T10:25:51.873Z,49.4682
2023-04-10T10:26:59.998Z,50.2434
2023-04-10T10:28:08.248Z,50.2349
2023-04-10T10:29:16.090Z,50.6972
2023-04-10T10:30:30.238Z,49.5980
2023-04-10T10:31:37.017Z,49.2724
2023-04-10T10:32:45.056Z,50.2701
2023-04-10T10:33:53.126Z,45.2337
2023-04-10T10:35:01.509Z,44.9803
2023-04-10T10:36:09.408Z,46.4582
2023-04-10T10:37:17.551Z,47.5855
2023-04-10T10:38:25.455Z,45.3341
2023-04-10T10:39:33.544Z,45.1657
2023-04-10T10:40:41.596Z,44.9913
2023-04-10T10:41:49.648Z,44.8185
2023-04-10T10:42:57.828Z,42.4032
2023-04-10T10:44:05.771Z,41.5885
2023-04-10T10:45:13.804Z,41.4993
2023-04-10T10:46:21.954Z,41.0862
2023-04-10T10:47:30.006Z,43.0388
2023-04-10T10:48:37.983Z,40.3027
2023-04-10T10:49:46.053Z,40.4412
2023-04-10T10:50:54.182Z,39.6444
2023-04-10T10:52:02.077Z,39.6936
2023-04-10T10:53:10.292Z,37.2285
2023-04-10T10:54:18.285Z,37.9320
2023-04-10T10:55:26.392Z,38.1666
2023-04-10T10:56:34.444Z,36.6625
2023-04-10T10:57:42.496Z,35.7571
2023-04-10T10:58:50.596Z,36.2703
2023-04-10T10:59:58.622Z,37.1387
2023-04-10T11:01:09.243Z,36.9901
2023-04-10T11:02:19.781Z,38.4356
2023-04-10T11:03:27.906Z,37.1831
2023-04-10T11:04:35.632Z,37.1421
2023-04-10T11:05:43.899Z,37.9707
2023-04-10T11:06:51.920Z,38.6473
2023-04-10T11:07:59.841Z,38.0983
2023-04-10T11:09:07.933Z,38.4310
2023-04-10T11:10:15.945Z,39.5913
2023-04-10T11:11:24.064Z,37.9814
2023-04-10T11:12:32.133Z,35.8033
2023-04-10T11:13:40.202Z,36.6220
2023-04-10T11:14:48.247Z,38.4225
2023-04-10T11:15:56.262Z,37.6467
2023-04-10T11:17:04.569Z,35.7733
2023-04-10T11:18:12.515Z,37.9521
2023-04-10T11:20:28.537Z,38.1343
2023-04-10T11:21:36.742Z,35.8389
2023-04-10T11:22:44.672Z,37.9368
2023-04-10T11:23:52.800Z,37.3737
2023-04-10T11:25:00.826Z,38.7867
2023-04-10T11:26:08.817Z,38.7190
2023-04-10T11:27:16.963Z,38.0089
2023-04-10T11:28:24.952Z,38.2224
2023-04-10T11:29:33.008Z,40.9342
2023-04-10T11:30:41.492Z,41.9470
2023-04-10T11:31:49.351Z,39.2494
2023-04-10T11:32:57.542Z,38.9163
2023-04-10T11:34:05.408Z,39.8138
2023-04-10T11:35:13.388Z,37.4219
2023-04-10T11:36:21.318Z,36.8258
2023-04-10T11:37:29.474Z,36.7801
2023-04-10T11:38:37.561Z,37.4251
2023-04-10T11:39:45.609Z,37.6240
2023-04-10T11:40:53.585Z,38.9349
2023-04-10T11:42:01.675Z,39.7815
2023-04-10T11:43:09.749Z,39.4072
2023-04-10T11:44:17.829Z,40.4074
2023-04-10T11:45:25.993Z,39.6598
2023-04-10T11:46:33.939Z,41.6710
2023-04-10T11:47:42.130Z,39.7442
2023-04-10T11:48:50.059Z,40.7190
2023-04-10T11:49:58.138Z,40.9773
2023-04-10T11:51:06.288Z,38.7465
2023-04-10T11:52:14.242Z,36.2359
2023-04-10T11:53:22.437Z,38.4809
2023-04-10T11:54:30.448Z,38.1169
2023-04-10T11:55:38.525Z,37.9696
2023-04-10T11:56:46.495Z,37.0323
2023-04-10T11:57:54.548Z,38.1177
2023-04-10T11:59:02.619Z,38.5736
2023-04-10T12:00:10.604Z,39.3923
2023-04-10T12:01:18.828Z,38.2108
2023-04-10T12:02:26.828Z,38.6285
2023-04-10T12:03:35.000Z,38.2171
2023-04-10T12:04:43.109Z,40.3795
2023-04-10T12:05:51.065Z,38.1299
2023-04-10T12:06:59.011Z,38.7243
2023-04-10T12:08:07.019Z,36.2461
2023-04-10T12:09:15.260Z,35.3166
2023-04-10T12:10:23.230Z,35.1023
2023-04-10T12:11:31.297Z,34.2226
2023-04-10T12:12:39.425Z,35.1288
2023-04-10T12:13:47.356Z,32.9156
2023-04-10T12:14:55.453Z,32.8739
2023-04-10T12:16:03.546Z,32.5933
2023-04-10T12:17:11.664Z,32.5309
2023-04-10T12:18:19.711Z,33.1386
2023-04-10T12:19:27.669Z,32.3316
2023-04-10T12:20:35.877Z,33.9297
2023-04-10T12:21:43.834Z,34.5802
2023-04-10T12:22:51.948Z,36.8399
2023-04-10T12:24:00.072Z,35.3252
2023-04-10T12:25:08.032Z,33.8294
2023-04-10T12:26:16.079Z,33.5939
2023-04-10T12:27:24.093Z,35.0138
2023-04-10T12:28:32.220Z,32.9264
2023-04-10T12:29:40.302Z,32.3002
2023-04-10T12:30:48.328Z,29.2094
2023-04-10T12:31:56.611Z,32.4136
2023-04-10T12:33:04.516Z,29.9667
2023-04-10T12:34:12.640Z,32.7910
2023-04-10T12:35:20.773Z,30.5735
2023-04-10T12:36:28.713Z,31.4521
2023-04-10T12:37:36.721Z,32.5667
2023-04-10T12:38:44.789Z,33.4793
2023-04-10T12:39:52.789Z,34.3473
2023-04-10T12:41:01.102Z,35.0331
2023-04-10T12:42:08.972Z,34.9086
2023-04-10T12:43:17.031Z,35.0052
2023-04-10T12:44:25.178Z,35.7179
2023-04-10T12:45:33.117Z,35.2818
2023-04-10T12:46:41.446Z,32.8671
2023-04-10T12:47:49.435Z,33.4611
2023-04-10T12:48:57.386Z,33.3307
2023-04-10T12:50:05.499Z,32.7827
2023-04-10T12:51:13.396Z,33.5439
2023-04-10T12:52:21.590Z,34.1555
2023-04-10T12:53:29.590Z,33.2046
2023-04-10T12:54:37.658Z,34.3228
2023-04-10T12:55:45.712Z,34.0388
2023-04-10T12:56:53.775Z,34.0332
2023-04-10T12:58:02.013Z,33.9761
2023-04-10T12:59:09.909Z,35.3566
2023-04-10T13:00:17.938Z,36.3966
2023-04-10T13:01:26.162Z,34.9515
2023-04-10T13:02:34.297Z,35.1586
2023-04-10T13:03:42.315Z,37.3372
2023-04-10T13:04:50.372Z,38.5396
2023-04-10T13:05:58.280Z,37.9975
2023-04-10T13:07:06.341Z,36.7526
2023-04-10T13:08:14.462Z,36.3886
2023-04-10T13:09:22.497Z,37.6830
2023-04-10T13:10:30.569Z,36.5667
2023-04-10T13:11:38.505Z,36.9134
2023-04-10T13:12:46.778Z,37.0998
2023-04-10T13:13:54.743Z,39.2893
2023-04-10T13:15:02.829Z,39.4259
2023-04-10T13:16:10.866Z,38.2219
2023-04-10T13:17:18.891Z,38.2941
2023-04-10T13:18:26.954Z,38.8143
2023-04-10T13:19:35.056Z,38.0509
2023-04-10T13:20:43.133Z,37.6268
2023-04-10T13:21:51.130Z,37.1230
2023-04-10T13:22:59.116Z,37.1920
2023-04-10T13:24:07.267Z,38.3895
2023-04-10T13:25:15.314Z,38.8326
2023-04-10T13:26:23.409Z,37.8188
2023-04-10T13:27:31.540Z,38.3441
2023-04-10T13:28:39.435Z,36.8260
2023-04-10T13:29:47.710Z,36.5262
2023-04-10T13:30:55.707Z,37.4388
2023-04-10T13:32:03.749Z,35.5767
2023-04-10T13:33:11.807Z,33.5610
2023-04-10T13:34:19.876Z,36.2250
2023-04-10T13:35:27.899Z,35.6246
2023-04-10T13:36:36.038Z,35.4843
2023-04-10T13:37:44.224Z,35.8306
2023-04-10T13:38:52.174Z,37.5063
2023-04-10T13:40:00.122Z,35.6103
2023-04-10T13:41:08.207Z,34.6303
2023-04-10T13:42:16.210Z,34.2442
2023-04-10T13:43:24.291Z,34.1461
2023-04-10T13:44:32.378Z,33.7209
2023-04-10T13:45:40.495Z,34.4435